sensor_id;sensor_type;location;lat;lon;timestamp;pressure;altitude;pressure_sealevel;temperature;humidity
51460;BME280;37534;39.772;2.718;2023-08-20T00:00:11;101448.59;;;25.81;100.00
51460;BME280;37534;39.772;2.718;2023-08-20T00:02:37;101449.47;;;25.82;100.00
51460;BME280;37534;39.772;2.718;2023-08-20T00:05:06;101449.44;;;25.70;100.00
51460;BME280;37534;39.772;2.718;2023-08-20T00:07:32;101439.84;;;25.58;100.00
51460;BME280;37534;39.772;2.718;2023-08-20T00:09:58;101446.69;;;25.60;100.00
51460;BME280;37534;39.772;2.718;2023-08-20T00:12:24;101441.16;;;25.52;100.00
51460;BME280;37534;39.772;2.718;2023-08-20T00:17:18;101440.94;;;25.44;100.00
51460;BME280;37534;39.772;2.718;2023-08-20T00:19:45;101435.16;;;25.39;100.00
51460;BME280;37534;39.772;2.718;2023-08-20T00:22:10;101444.78;;;25.51;100.00
51460;BME280;37534;39.772;2.718;2023-08-20T00:24:36;101442.13;;;25.51;100.00
51460;BME280;37534;39.772;2.718;2023-08-20T00:27:02;101431.31;;;25.43;100.00
51460;BME280;37534;39.772;2.718;2023-08-20T00:29:27;101436.94;;;25.38;100.00
51460;BME280;37534;39.772;2.718;2023-08-20T00:31:53;101450.19;;;25.50;100.00
51460;BME280;37534;39.772;2.718;2023-08-20T00:34:18;101450.03;;;25.40;100.00
51460;BME280;37534;39.772;2.718;2023-08-20T00:36:44;101460.72;;;25.38;100.00
51460;BME280;37534;39.772;2.718;2023-08-20T00:39:09;101460.81;;;25.37;100.00
51460;BME280;37534;39.772;2.718;2023-08-20T00:41:35;101459.41;;;25.33;100.00
51460;BME280;37534;39.772;2.718;2023-08-20T00:44:00;101452.19;;;25.35;100.00
51460;BME280;37534;39.772;2.718;2023-08-20T00:46:26;101457.25;;;25.38;100.00
51460;BME280;37534;39.772;2.718;2023-08-20T00:48:52;101448.00;;;25.32;100.00
51460;BME280;37534;39.772;2.718;2023-08-20T00:51:17;101454.81;;;25.35;100.00
51460;BME280;37534;39.772;2.718;2023-08-20T00:53:44;101447.75;;;25.35;100.00
51460;BME280;37534;39.772;2.718;2023-08-20T00:56:09;101458.06;;;25.38;100.00
51460;BME280;37534;39.772;2.718;2023-08-20T00:58:35;101452.91;;;25.37;100.00
51460;BME280;37534;39.772;2.718;2023-08-20T01:01:00;101443.16;;;25.26;100.00
51460;BME280;37534;39.772;2.718;2023-08-20T01:03:26;101447.28;;;25.30;100.00
51460;BME280;37534;39.772;2.718;2023-08-20T01:06:10;101442.09;;;25.29;100.00
51460;BME280;37534;39.772;2.718;2023-08-20T01:08:40;101455.09;;;25.43;100.00
51460;BME280;37534;39.772;2.718;2023-08-20T01:11:29;101439.69;;;25.26;100.00
51460;BME280;37534;39.772;2.718;2023-08-20T01:13:58;101454.47;;;25.28;100.00
51460;BME280;37534;39.772;2.718;2023-08-20T01:16:23;101453.63;;;25.28;100.00
51460;BME280;37534;39.772;2.718;2023-08-20T01:18:49;101451.44;;;25.21;100.00
51460;BME280;37534;39.772;2.718;2023-08-20T01:21:39;101460.00;;;25.25;100.00
51460;BME280;37534;39.772;2.718;2023-08-20T01:24:17;101450.25;;;25.26;100.00
51460;BME280;37534;39.772;2.718;2023-08-20T01:29:31;101451.22;;;25.25;100.00
51460;BME280;37534;39.772;2.718;2023-08-20T01:31:57;101443.97;;;25.15;100.00
51460;BME280;37534;39.772;2.718;2023-08-20T01:34:23;101436.53;;;25.09;100.00
51460;BME280;37534;39.772;2.718;2023-08-20T01:36:49;101450.22;;;25.14;100.00
51460;BME280;37534;39.772;2.718;2023-08-20T01:39:14;101455.00;;;25.20;100.00
51460;BME280;37534;39.772;2.718;2023-08-20T01:41:40;101451.22;;;25.25;100.00
51460;BME280;37534;39.772;2.718;2023-08-20T01:44:06;101453.72;;;25.26;100.00
51460;BME280;37534;39.772;2.718;2023-08-20T01:46:32;101453.88;;;25.25;100.00
51460;BME280;37534;39.772;2.718;2023-08-20T01:48:58;101455.44;;;25.27;100.00
51460;BME280;37534;39.772;2.718;2023-08-20T01:51:24;101456.97;;;25.30;100.00
51460;BME280;37534;39.772;2.718;2023-08-20T01:53:49;101462.75;;;25.35;100.00
51460;BME280;37534;39.772;2.718;2023-08-20T01:56:15;101460.16;;;25.46;100.00
51460;BME280;37534;39.772;2.718;2023-08-20T01:58:41;101465.88;;;25.40;100.00
51460;BME280;37534;39.772;2.718;2023-08-20T02:01:06;101463.84;;;25.32;100.00
51460;BME280;37534;39.772;2.718;2023-08-20T02:03:32;101455.00;;;25.20;100.00
51460;BME280;37534;39.772;2.718;2023-08-20T02:05:58;101451.16;;;25.13;100.00
51460;BME280;37534;39.772;2.718;2023-08-20T02:08:23;101463.41;;;25.14;100.00
51460;BME280;37534;39.772;2.718;2023-08-20T02:10:49;101452.81;;;25.03;100.00
51460;BME280;37534;39.772;2.718;2023-08-20T02:13:14;101450.66;;;24.97;100.00
51460;BME280;37534;39.772;2.718;2023-08-20T02:15:40;101448.22;;;24.94;100.00
51460;BME280;37534;39.772;2.718;2023-08-20T02:18:05;101444.16;;;24.90;100.00
51460;BME280;37534;39.772;2.718;2023-08-20T02:20:31;101436.69;;;24.83;100.00
51460;BME280;37534;39.772;2.718;2023-08-20T02:22:56;101444.16;;;24.90;100.00
51460;BME280;37534;39.772;2.718;2023-08-20T02:25:23;101444.47;;;24.85;100.00
51460;BME280;37534;39.772;2.718;2023-08-20T02:27:49;101439.28;;;24.72;100.00
51460;BME280;37534;39.772;2.718;2023-08-20T02:30:15;101438.28;;;24.62;100.00
51460;BME280;37534;39.772;2.718;2023-08-20T02:32:40;101438.28;;;24.62;100.00
51460;BME280;37534;39.772;2.718;2023-08-20T02:35:06;101440.59;;;24.66;100.00
51460;BME280;37534;39.772;2.718;2023-08-20T02:37:32;101446.69;;;24.67;100.00
51460;BME280;37534;39.772;2.718;2023-08-20T02:39:58;101432.78;;;24.65;100.00
51460;BME280;37534;39.772;2.718;2023-08-20T02:42:23;101434.47;;;24.66;100.00
51460;BME280;37534;39.772;2.718;2023-08-20T02:44:49;101430.25;;;24.63;100.00
51460;BME280;37534;39.772;2.718;2023-08-20T02:47:14;101432.56;;;24.68;100.00
51460;BME280;37534;39.772;2.718;2023-08-20T02:49:40;101423.94;;;24.66;100.00
51460;BME280;37534;39.772;2.718;2023-08-20T02:52:05;101450.34;;;24.77;100.00
51460;BME280;37534;39.772;2.718;2023-08-20T02:54:31;101450.56;;;24.74;100.00
51460;BME280;37534;39.772;2.718;2023-08-20T02:56:58;101445.41;;;24.73;100.00
51460;BME280;37534;39.772;2.718;2023-08-20T02:59:23;101446.47;;;24.70;100.00
51460;BME280;37534;39.772;2.718;2023-08-20T03:01:49;101442.72;;;24.85;100.00
51460;BME280;37534;39.772;2.718;2023-08-20T03:04:15;101444.66;;;24.95;100.00
51460;BME280;37534;39.772;2.718;2023-08-20T03:06:41;101450.00;;;24.82;100.00
51460;BME280;37534;39.772;2.718;2023-08-20T03:09:06;101444.56;;;24.72;100.00
51460;BME280;37534;39.772;2.718;2023-08-20T03:11:32;101443.13;;;24.68;100.00
51460;BME280;37534;39.772;2.718;2023-08-20T03:13:57;101447.31;;;24.71;100.00
51460;BME280;37534;39.772;2.718;2023-08-20T03:16:23;101440.69;;;24.65;100.00
51460;BME280;37534;39.772;2.718;2023-08-20T03:18:48;101446.91;;;24.64;100.00
51460;BME280;37534;39.772;2.718;2023-08-20T03:21:14;101454.09;;;24.62;100.00
51460;BME280;37534;39.772;2.718;2023-08-20T03:23:39;101446.59;;;24.69;100.00
51460;BME280;37534;39.772;2.718;2023-08-20T03:26:05;101443.63;;;24.73;100.00
51460;BME280;37534;39.772;2.718;2023-08-20T03:28:30;101452.19;;;24.64;100.00
51460;BME280;37534;39.772;2.718;2023-08-20T03:30:59;101439.50;;;24.69;100.00
51460;BME280;37534;39.772;2.718;2023-08-20T03:33:26;101441.41;;;24.67;100.00
51460;BME280;37534;39.772;2.718;2023-08-20T03:35:51;101446.19;;;24.62;100.00
51460;BME280;37534;39.772;2.718;2023-08-20T03:38:17;101452.19;;;24.64;100.00
51460;BME280;37534;39.772;2.718;2023-08-20T03:40:42;101451.25;;;24.65;100.00
51460;BME280;37534;39.772;2.718;2023-08-20T03:43:08;101455.34;;;24.69;100.00
51460;BME280;37534;39.772;2.718;2023-08-20T03:45:34;101441.28;;;24.57;100.00
51460;BME280;37534;39.772;2.718;2023-08-20T03:47:59;101444.88;;;24.43;100.00
51460;BME280;37534;39.772;2.718;2023-08-20T03:50:25;101428.50;;;24.27;100.00
51460;BME280;37534;39.772;2.718;2023-08-20T03:52:50;101459.69;;;24.33;100.00
51460;BME280;37534;39.772;2.718;2023-08-20T03:55:16;101447.69;;;24.29;100.00
51460;BME280;37534;39.772;2.718;2023-08-20T03:57:41;101461.16;;;24.37;100.00
51460;BME280;37534;39.772;2.718;2023-08-20T04:00:08;101456.84;;;24.36;100.00
51460;BME280;37534;39.772;2.718;2023-08-20T04:02:34;101450.28;;;24.42;100.00
51460;BME280;37534;39.772;2.718;2023-08-20T04:05:00;101449.34;;;24.43;100.00
51460;BME280;37534;39.772;2.718;2023-08-20T04:07:26;101449.81;;;24.48;100.00
51460;BME280;37534;39.772;2.718;2023-08-20T04:09:51;101459.13;;;24.54;100.00
51460;BME280;37534;39.772;2.718;2023-08-20T04:12:17;101448.03;;;24.48;100.00
51460;BME280;37534;39.772;2.718;2023-08-20T04:14:42;101440.13;;;24.48;100.00
51460;BME280;37534;39.772;2.718;2023-08-20T04:17:08;101451.94;;;24.56;100.00
51460;BME280;37534;39.772;2.718;2023-08-20T04:19:33;101457.81;;;24.59;100.00
51460;BME280;37534;39.772;2.718;2023-08-20T04:21:59;101443.38;;;24.52;100.00
51460;BME280;37534;39.772;2.718;2023-08-20T04:24:24;101453.28;;;24.61;100.00
51460;BME280;37534;39.772;2.718;2023-08-20T04:26:50;101457.09;;;24.57;100.00
51460;BME280;37534;39.772;2.718;2023-08-20T04:29:15;101468.72;;;24.55;100.00
51460;BME280;37534;39.772;2.718;2023-08-20T04:31:41;101463.25;;;24.45;100.00
51460;BME280;37534;39.772;2.718;2023-08-20T04:34:06;101461.44;;;24.45;100.00
51460;BME280;37534;39.772;2.718;2023-08-20T04:36:32;101466.00;;;24.43;100.00
51460;BME280;37534;39.772;2.718;2023-08-20T04:38:57;101469.13;;;24.48;100.00
51460;BME280;37534;39.772;2.718;2023-08-20T04:41:23;101478.97;;;24.46;100.00
51460;BME280;37534;39.772;2.718;2023-08-20T04:43:49;101477.78;;;24.51;100.00
51460;BME280;37534;39.772;2.718;2023-08-20T04:46:14;101481.69;;;24.58;100.00
51460;BME280;37534;39.772;2.718;2023-08-20T04:48:40;101480.69;;;24.35;100.00
51460;BME280;37534;39.772;2.718;2023-08-20T04:51:05;101477.22;;;24.21;100.00
51460;BME280;37534;39.772;2.718;2023-08-20T04:53:32;101484.66;;;24.16;100.00
51460;BME280;37534;39.772;2.718;2023-08-20T04:55:58;101497.69;;;24.18;100.00
51460;BME280;37534;39.772;2.718;2023-08-20T04:58:24;101489.31;;;24.13;100.00
51460;BME280;37534;39.772;2.718;2023-08-20T05:00:50;101502.88;;;24.19;100.00
51460;BME280;37534;39.772;2.718;2023-08-20T05:03:15;101499.19;;;24.22;100.00
51460;BME280;37534;39.772;2.718;2023-08-20T05:05:41;101496.03;;;24.17;100.00
51460;BME280;37534;39.772;2.718;2023-08-20T05:08:06;101504.47;;;24.22;100.00
51460;BME280;37534;39.772;2.718;2023-08-20T05:10:36;101492.16;;;24.09;100.00
51460;BME280;37534;39.772;2.718;2023-08-20T05:13:01;101503.94;;;24.17;100.00
51460;BME280;37534;39.772;2.718;2023-08-20T05:15:27;101501.63;;;24.12;100.00
51460;BME280;37534;39.772;2.718;2023-08-20T05:17:52;101504.00;;;24.28;100.00
51460;BME280;37534;39.772;2.718;2023-08-20T05:20:18;101495.16;;;24.29;100.00
51460;BME280;37534;39.772;2.718;2023-08-20T05:22:44;101496.19;;;24.26;100.00
51460;BME280;37534;39.772;2.718;2023-08-20T05:25:09;101493.28;;;24.18;100.00
51460;BME280;37534;39.772;2.718;2023-08-20T05:27:35;101500.88;;;24.10;100.00
51460;BME280;37534;39.772;2.718;2023-08-20T05:30:00;101501.09;;;24.07;100.00
51460;BME280;37534;39.772;2.718;2023-08-20T05:32:26;101505.63;;;24.05;100.00
51460;BME280;37534;39.772;2.718;2023-08-20T05:34:51;101503.97;;;24.04;100.00
51460;BME280;37534;39.772;2.718;2023-08-20T05:37:17;101499.31;;;24.07;100.00
51460;BME280;37534;39.772;2.718;2023-08-20T05:39:43;101509.00;;;24.20;100.00
51460;BME280;37534;39.772;2.718;2023-08-20T05:42:09;101503.59;;;24.21;100.00
51460;BME280;37534;39.772;2.718;2023-08-20T05:44:35;101505.59;;;24.31;100.00
51460;BME280;37534;39.772;2.718;2023-08-20T05:47:01;101502.59;;;24.35;100.00
51460;BME280;37534;39.772;2.718;2023-08-20T05:49:27;101494.28;;;24.41;100.00
51460;BME280;37534;39.772;2.718;2023-08-20T05:51:52;101494.78;;;24.46;100.00
51460;BME280;37534;39.772;2.718;2023-08-20T05:54:18;101502.25;;;24.53;100.00
51460;BME280;37534;39.772;2.718;2023-08-20T05:56:44;101503.72;;;24.57;100.00
51460;BME280;37534;39.772;2.718;2023-08-20T05:59:09;101508.78;;;24.60;100.00
51460;BME280;37534;39.772;2.718;2023-08-20T06:01:35;101505.94;;;24.63;100.00
51460;BME280;37534;39.772;2.718;2023-08-20T06:04:00;101509.69;;;24.72;100.00
51460;BME280;37534;39.772;2.718;2023-08-20T06:06:27;101516.09;;;24.80;100.00
51460;BME280;37534;39.772;2.718;2023-08-20T06:08:52;101505.53;;;24.80;100.00
51460;BME280;37534;39.772;2.718;2023-08-20T06:11:19;101511.66;;;24.81;100.00
51460;BME280;37534;39.772;2.718;2023-08-20T06:13:44;101509.59;;;24.73;100.00
51460;BME280;37534;39.772;2.718;2023-08-20T06:16:10;101509.69;;;24.72;100.00
51460;BME280;37534;39.772;2.718;2023-08-20T06:18:35;101523.91;;;24.82;100.00
51460;BME280;37534;39.772;2.718;2023-08-20T06:21:02;101527.16;;;24.85;100.00
51460;BME280;37534;39.772;2.718;2023-08-20T06:23:28;101520.91;;;24.86;100.00
51460;BME280;37534;39.772;2.718;2023-08-20T06:25:54;101528.63;;;25.01;100.00
51460;BME280;37534;39.772;2.718;2023-08-20T06:28:19;101524.22;;;25.01;100.00
51460;BME280;37534;39.772;2.718;2023-08-20T06:30:45;101533.00;;;25.13;100.00
51460;BME280;37534;39.772;2.718;2023-08-20T06:33:11;101518.63;;;25.17;100.00
51460;BME280;37534;39.772;2.718;2023-08-20T06:35:38;101541.03;;;25.36;100.00
51460;BME280;37534;39.772;2.718;2023-08-20T06:38:03;101513.31;;;25.41;100.00
51460;BME280;37534;39.772;2.718;2023-08-20T06:40:29;101534.00;;;25.70;100.00
51460;BME280;37534;39.772;2.718;2023-08-20T06:42:55;101525.38;;;25.79;100.00
51460;BME280;37534;39.772;2.718;2023-08-20T06:45:20;101531.53;;;26.03;100.00
51460;BME280;37534;39.772;2.718;2023-08-20T06:47:46;101529.50;;;26.17;100.00
51460;BME280;37534;39.772;2.718;2023-08-20T06:50:11;101516.63;;;26.24;100.00
51460;BME280;37534;39.772;2.718;2023-08-20T06:52:37;101531.97;;;26.42;100.00
51460;BME280;37534;39.772;2.718;2023-08-20T06:55:03;101531.25;;;26.62;100.00
51460;BME280;37534;39.772;2.718;2023-08-20T06:57:29;101533.47;;;26.78;100.00
51460;BME280;37534;39.772;2.718;2023-08-20T06:59:55;101535.81;;;26.92;100.00
51460;BME280;37534;39.772;2.718;2023-08-20T07:02:20;101538.28;;;27.05;100.00
51460;BME280;37534;39.772;2.718;2023-08-20T07:04:46;101534.88;;;27.15;100.00
51460;BME280;37534;39.772;2.718;2023-08-20T07:07:12;101535.19;;;27.33;100.00
51460;BME280;37534;39.772;2.718;2023-08-20T07:09:37;101535.25;;;27.42;100.00
51460;BME280;37534;39.772;2.718;2023-08-20T07:12:05;101545.25;;;27.60;100.00
51460;BME280;37534;39.772;2.718;2023-08-20T07:14:30;101538.66;;;27.75;100.00
51460;BME280;37534;39.772;2.718;2023-08-20T07:16:56;101536.84;;;27.85;100.00
51460;BME280;37534;39.772;2.718;2023-08-20T07:19:21;101528.41;;;27.92;100.00
51460;BME280;37534;39.772;2.718;2023-08-20T07:21:47;101541.31;;;28.06;100.00
51460;BME280;37534;39.772;2.718;2023-08-20T07:24:13;101542.19;;;28.26;100.00
51460;BME280;37534;39.772;2.718;2023-08-20T07:26:38;101540.03;;;28.41;100.00
51460;BME280;37534;39.772;2.718;2023-08-20T07:29:04;101539.78;;;28.54;100.00
51460;BME280;37534;39.772;2.718;2023-08-20T07:31:31;101540.38;;;28.77;100.00
51460;BME280;37534;39.772;2.718;2023-08-20T07:33:59;101535.59;;;28.90;100.00
51460;BME280;37534;39.772;2.718;2023-08-20T07:36:25;101532.41;;;28.96;100.00
51460;BME280;37534;39.772;2.718;2023-08-20T07:38:52;101537.03;;;28.94;100.00
51460;BME280;37534;39.772;2.718;2023-08-20T07:41:18;101534.22;;;29.06;100.00
51460;BME280;37534;39.772;2.718;2023-08-20T07:43:45;101533.66;;;29.22;100.00
51460;BME280;37534;39.772;2.718;2023-08-20T07:46:11;101539.50;;;29.35;100.00
51460;BME280;37534;39.772;2.718;2023-08-20T07:48:37;101534.47;;;29.42;100.00
51460;BME280;37534;39.772;2.718;2023-08-20T07:51:03;101541.97;;;29.56;100.00
51460;BME280;37534;39.772;2.718;2023-08-20T07:53:30;101535.56;;;29.49;100.00
51460;BME280;37534;39.772;2.718;2023-08-20T07:55:56;101545.84;;;29.71;100.00
51460;BME280;37534;39.772;2.718;2023-08-20T07:58:21;101527.81;;;29.75;100.00
51460;BME280;37534;39.772;2.718;2023-08-20T08:00:47;101540.94;;;29.86;100.00
51460;BME280;37534;39.772;2.718;2023-08-20T08:03:13;101546.63;;;30.01;100.00
51460;BME280;37534;39.772;2.718;2023-08-20T08:05:40;101542.09;;;30.11;100.00
51460;BME280;37534;39.772;2.718;2023-08-20T08:08:06;101542.19;;;30.20;100.00
51460;BME280;37534;39.772;2.718;2023-08-20T08:10:32;101560.44;;;30.42;100.00
51460;BME280;37534;39.772;2.718;2023-08-20T08:12:57;101550.84;;;30.49;100.00
51460;BME280;37534;39.772;2.718;2023-08-20T08:15:23;101558.78;;;30.59;100.00
51460;BME280;37534;39.772;2.718;2023-08-20T08:17:48;101557.66;;;30.80;100.00
51460;BME280;37534;39.772;2.718;2023-08-20T08:20:14;101551.38;;;30.99;100.00
51460;BME280;37534;39.772;2.718;2023-08-20T08:22:40;101559.38;;;31.25;100.00
51460;BME280;37534;39.772;2.718;2023-08-20T08:25:05;101550.75;;;31.49;100.00
51460;BME280;37534;39.772;2.718;2023-08-20T08:27:31;101561.94;;;31.79;100.00
51460;BME280;37534;39.772;2.718;2023-08-20T08:29:57;101554.97;;;31.86;100.00
51460;BME280;37534;39.772;2.718;2023-08-20T08:32:22;101569.94;;;32.05;100.00
51460;BME280;37534;39.772;2.718;2023-08-20T08:34:48;101575.00;;;32.33;100.00
51460;BME280;37534;39.772;2.718;2023-08-20T08:37:13;101566.88;;;32.51;100.00
51460;BME280;37534;39.772;2.718;2023-08-20T08:39:41;101569.97;;;32.64;100.00
51460;BME280;37534;39.772;2.718;2023-08-20T08:42:06;101571.97;;;32.78;99.78
51460;BME280;37534;39.772;2.718;2023-08-20T08:44:33;101571.63;;;32.73;99.71
51460;BME280;37534;39.772;2.718;2023-08-20T08:47:00;101582.34;;;32.98;99.09
51460;BME280;37534;39.772;2.718;2023-08-20T08:49:26;101574.31;;;33.06;96.31
51460;BME280;37534;39.772;2.718;2023-08-20T08:51:53;101583.38;;;33.22;96.00
51460;BME280;37534;39.772;2.718;2023-08-20T08:54:21;101573.47;;;33.47;95.14
51460;BME280;37534;39.772;2.718;2023-08-20T08:56:46;101576.94;;;33.72;92.49
51460;BME280;37534;39.772;2.718;2023-08-20T08:59:12;101576.59;;;33.83;90.95
51460;BME280;37534;39.772;2.718;2023-08-20T09:01:41;101578.22;;;33.93;88.85
51460;BME280;37534;39.772;2.718;2023-08-20T09:04:07;101567.41;;;33.61;89.47
51460;BME280;37534;39.772;2.718;2023-08-20T09:06:54;101576.34;;;34.09;88.36
51460;BME280;37534;39.772;2.718;2023-08-20T09:09:21;101585.78;;;34.28;84.96
51460;BME280;37534;39.772;2.718;2023-08-20T09:11:47;101580.41;;;34.37;83.98
51460;BME280;37534;39.772;2.718;2023-08-20T09:14:29;101575.34;;;34.42;85.89
51460;BME280;37534;39.772;2.718;2023-08-20T09:17:00;101585.34;;;34.48;85.75
51460;BME280;37534;39.772;2.718;2023-08-20T09:19:35;101578.75;;;34.59;83.85
51460;BME280;37534;39.772;2.718;2023-08-20T09:22:03;101582.69;;;34.79;82.79
51460;BME280;37534;39.772;2.718;2023-08-20T09:24:33;101595.03;;;35.03;81.45
51460;BME280;37534;39.772;2.718;2023-08-20T09:27:03;101596.53;;;35.29;81.02
51460;BME280;37534;39.772;2.718;2023-08-20T09:29:32;101586.38;;;35.39;79.45
51460;BME280;37534;39.772;2.718;2023-08-20T09:32:02;101588.88;;;35.56;76.89
51460;BME280;37534;39.772;2.718;2023-08-20T09:34:37;101588.59;;;35.66;76.94
51460;BME280;37534;39.772;2.718;2023-08-20T09:37:10;101582.91;;;35.84;75.28
51460;BME280;37534;39.772;2.718;2023-08-20T09:39:36;101586.31;;;36.07;75.31
51460;BME280;37534;39.772;2.718;2023-08-20T09:42:02;101581.56;;;36.09;72.27
51460;BME280;37534;39.772;2.718;2023-08-20T09:44:33;101590.34;;;36.33;72.34
51460;BME280;37534;39.772;2.718;2023-08-20T09:47:03;101587.69;;;36.54;70.55
51460;BME280;37534;39.772;2.718;2023-08-20T09:49:36;101582.75;;;36.73;70.23
51460;BME280;37534;39.772;2.718;2023-08-20T09:52:05;101596.19;;;36.95;68.65
51460;BME280;37534;39.772;2.718;2023-08-20T09:55:36;101591.94;;;37.07;66.47
51460;BME280;37534;39.772;2.718;2023-08-20T09:57:38;101588.41;;;37.28;67.59
51460;BME280;37534;39.772;2.718;2023-08-20T10:00:06;101589.41;;;37.55;65.68
51460;BME280;37534;39.772;2.718;2023-08-20T10:02:35;101580.06;;;37.79;64.65
51460;BME280;37534;39.772;2.718;2023-08-20T10:05:02;101577.25;;;38.01;63.11
51460;BME280;37534;39.772;2.718;2023-08-20T10:07:29;101570.59;;;38.03;63.78
51460;BME280;37534;39.772;2.718;2023-08-20T10:09:59;101581.50;;;38.30;62.41
51460;BME280;37534;39.772;2.718;2023-08-20T10:12:29;101572.47;;;38.58;59.92
51460;BME280;37534;39.772;2.718;2023-08-20T10:14:56;101577.88;;;38.85;58.86
51460;BME280;37534;39.772;2.718;2023-08-20T10:17:23;101574.59;;;39.03;58.98
51460;BME280;37534;39.772;2.718;2023-08-20T10:19:50;101577.06;;;39.24;58.12
51460;BME280;37534;39.772;2.718;2023-08-20T10:22:17;101566.25;;;39.38;56.16
51460;BME280;37534;39.772;2.718;2023-08-20T10:24:52;101566.63;;;39.61;56.00
51460;BME280;37534;39.772;2.718;2023-08-20T10:27:31;101569.94;;;39.63;55.24
51460;BME280;37534;39.772;2.718;2023-08-20T10:30:01;101562.28;;;39.40;55.44
51460;BME280;37534;39.772;2.718;2023-08-20T10:32:54;101576.13;;;39.77;53.93
51460;BME280;37534;39.772;2.718;2023-08-20T10:35:26;101572.09;;;39.14;55.33
51460;BME280;37534;39.772;2.718;2023-08-20T10:38:03;101570.41;;;39.53;54.87
51460;BME280;37534;39.772;2.718;2023-08-20T10:40:54;101581.19;;;39.53;54.46
51460;BME280;37534;39.772;2.718;2023-08-20T10:43:40;101573.22;;;39.79;53.43
51460;BME280;37534;39.772;2.718;2023-08-20T10:46:17;101575.75;;;39.60;54.79
51460;BME280;37534;39.772;2.718;2023-08-20T10:48:56;101573.34;;;39.32;54.88
51460;BME280;37534;39.772;2.718;2023-08-20T10:51:33;101569.50;;;39.73;55.77
51460;BME280;37534;39.772;2.718;2023-08-20T10:56:46;101580.72;;;39.70;55.48
51460;BME280;37534;39.772;2.718;2023-08-20T10:59:30;101587.03;;;39.50;55.69
51460;BME280;37534;39.772;2.718;2023-08-20T11:01:57;101570.34;;;39.67;55.73
51460;BME280;37534;39.772;2.718;2023-08-20T11:04:31;101570.72;;;39.84;55.77
51460;BME280;37534;39.772;2.718;2023-08-20T11:06:58;101575.81;;;39.53;54.83
51460;BME280;37534;39.772;2.718;2023-08-20T11:09:26;101582.03;;;39.34;56.70
51460;BME280;37534;39.772;2.718;2023-08-20T11:11:52;101578.03;;;39.70;56.45
51460;BME280;37534;39.772;2.718;2023-08-20T11:14:19;101577.03;;;39.58;55.78
51460;BME280;37534;39.772;2.718;2023-08-20T11:16:45;101569.97;;;39.57;55.63
51460;BME280;37534;39.772;2.718;2023-08-20T11:19:12;101575.53;;;39.75;55.97
51460;BME280;37534;39.772;2.718;2023-08-20T11:21:39;101562.78;;;39.89;54.60
51460;BME280;37534;39.772;2.718;2023-08-20T11:24:06;101574.47;;;39.76;54.24
51460;BME280;37534;39.772;2.718;2023-08-20T11:26:36;101566.84;;;40.11;53.89
51460;BME280;37534;39.772;2.718;2023-08-20T11:29:10;101565.00;;;40.12;51.58
51460;BME280;37534;39.772;2.718;2023-08-20T11:31:38;101579.63;;;40.29;52.71
51460;BME280;37534;39.772;2.718;2023-08-20T11:34:04;101573.09;;;40.12;52.84
51460;BME280;37534;39.772;2.718;2023-08-20T11:36:30;101572.13;;;39.86;52.33
51460;BME280;37534;39.772;2.718;2023-08-20T11:38:56;101574.31;;;40.16;52.31
51460;BME280;37534;39.772;2.718;2023-08-20T11:41:23;101581.31;;;40.30;51.50
51460;BME280;37534;39.772;2.718;2023-08-20T11:43:49;101577.13;;;40.35;51.84
51460;BME280;37534;39.772;2.718;2023-08-20T11:46:20;101573.06;;;40.19;52.40
51460;BME280;37534;39.772;2.718;2023-08-20T11:51:30;101563.47;;;40.23;51.70
51460;BME280;37534;39.772;2.718;2023-08-20T11:53:57;101570.13;;;40.59;52.02
51460;BME280;37534;39.772;2.718;2023-08-20T11:56:23;101568.06;;;40.86;50.81
51460;BME280;37534;39.772;2.718;2023-08-20T11:58:52;101572.78;;;40.65;51.17
51460;BME280;37534;39.772;2.718;2023-08-20T12:01:21;101573.63;;;40.66;51.13
51460;BME280;37534;39.772;2.718;2023-08-20T12:03:46;101566.88;;;40.50;51.15
51460;BME280;37534;39.772;2.718;2023-08-20T12:06:21;101573.59;;;40.41;51.15
51460;BME280;37534;39.772;2.718;2023-08-20T12:08:48;101558.84;;;40.37;51.98
51460;BME280;37534;39.772;2.718;2023-08-20T12:11:14;101559.06;;;40.28;51.23
51460;BME280;37534;39.772;2.718;2023-08-20T12:13:40;101566.28;;;40.03;52.64
51460;BME280;37534;39.772;2.718;2023-08-20T12:16:06;101571.66;;;40.48;51.46
51460;BME280;37534;39.772;2.718;2023-08-20T12:18:32;101575.31;;;40.22;51.98
51460;BME280;37534;39.772;2.718;2023-08-20T12:20:57;101572.16;;;39.93;53.10
51460;BME280;37534;39.772;2.718;2023-08-20T12:23:23;101563.22;;;39.92;53.24
51460;BME280;37534;39.772;2.718;2023-08-20T12:25:52;101574.22;;;40.29;51.83
51460;BME280;37534;39.772;2.718;2023-08-20T12:28:18;101578.59;;;40.30;51.80
51460;BME280;37534;39.772;2.718;2023-08-20T12:30:43;101568.19;;;39.96;52.90
51460;BME280;37534;39.772;2.718;2023-08-20T12:33:09;101577.56;;;39.80;52.82
51460;BME280;37534;39.772;2.718;2023-08-20T12:35:36;101581.13;;;39.80;54.00
51460;BME280;37534;39.772;2.718;2023-08-20T12:38:02;101583.28;;;39.51;54.88
51460;BME280;37534;39.772;2.718;2023-08-20T12:40:28;101571.00;;;39.56;54.81
51460;BME280;37534;39.772;2.718;2023-08-20T12:42:54;101577.41;;;39.68;54.33
51460;BME280;37534;39.772;2.718;2023-08-20T12:45:20;101566.34;;;39.76;53.83
51460;BME280;37534;39.772;2.718;2023-08-20T12:47:45;101570.81;;;39.57;54.00
51460;BME280;37534;39.772;2.718;2023-08-20T12:50:11;101576.66;;;39.21;55.54
51460;BME280;37534;39.772;2.718;2023-08-20T12:52:38;101574.19;;;39.12;56.70